Terminal Aerodrome Forecast
Issued by NWS

Home | Current Version | Previous Version | Text Only | Print | Product List | Glossary On
Versions: 1 2 3 4 5 6 7 8 9 10 11 12 13 14 15 16
000
FTUS45 KABQ 180200 AAA
TAFSAF
TAF AMD
KSAF 180204Z 1802/1824 03005KT P6SM BKN100
     FM180500 09010KT P6SM SCT150
     FM182100 15010KT P6SM VCSH SCT025 BKN050=

USA.gov is the U.S. government's official web portal to all federal, state and local government web resources and services.